»·PEaware :: C-GLGA KLAX-KSNA

C-GLGA :: KLAX-KSNA

FLIGHT INFORMATION

Flight Status: Arrived
Operator: Privately registered:
Canada
More flights under this callsign
Pilot: Matt G. (17748)
Aircraft: CESSNA 208 CARAVAN
(C208)
More flights by this aircraft type
Origin: KLAX Los Angeles Intl
United States
Destination: KSNA John Wayne-Orange Co
United States
More flights between these airports :: More routes between these airports
Route: SLI8 SLI
File this flight plan on PilotEdge
Remarks: I-6 Rating
Altitude:
(Current/Filed)
4,000ft
Speed:
(Current/Filed)
150kts
Departed: 10-Jan-18 10:02 AM
Arrived: 10-Jan-18 10:37 AM
Distance/Time
Traveled:
31nm/0:35
Distance/Time
To Go:
Arrived

Flight Plot

Page will automatically refresh every two minutes.

Flight plan parsing failed; only flown route is shown


Map Options




Map Legend


Flown Route
Filed Route
Departure Airport
Arrival Airport
Navaid (VOR, NDB)
Fix

Horizontal Profiles

Position Reports

Time Latitude Longitude Heading Altitude Ground
Speed
10-Jan-18 09:45 33.932556 -118.394972 179 132ft 0kts
10-Jan-18 09:46 33.932556 -118.394972 179 132ft 0kts
10-Jan-18 09:47 33.932556 -118.394972 179 132ft 0kts
10-Jan-18 09:48 33.932556 -118.394972 179 132ft 0kts
10-Jan-18 09:49 33.932556 -118.394972 179 132ft 0kts
10-Jan-18 09:50 33.932553 -118.394972 179 132ft 0kts
10-Jan-18 09:51 33.932553 -118.394972 179 132ft 0kts
10-Jan-18 09:52 33.932553 -118.394972 179 132ft 0kts
10-Jan-18 09:53 33.932553 -118.394972 179 132ft 0kts
10-Jan-18 09:54 33.932553 -118.394972 179 132ft 0kts
10-Jan-18 09:55 33.932553 -118.394972 179 132ft 0kts
10-Jan-18 09:56 33.932553 -118.394972 179 132ft 0kts
10-Jan-18 09:57 33.932553 -118.394972 179 132ft 0kts
10-Jan-18 09:58 33.932553 -118.394972 179 132ft 0kts
10-Jan-18 09:59 33.932553 -118.394972 179 132ft 0kts
10-Jan-18 10:00 33.932553 -118.394972 179 132ft 0kts
10-Jan-18 10:01 33.932553 -118.394972 179 132ft 0kts
10-Jan-18 10:02 33.932553 -118.394972 179 132ft 0kts
10-Jan-18 10:03 33.932763 -118.394160 4 132ft 9kts
10-Jan-18 10:04 33.934769 -118.394053 353 132ft 4kts
10-Jan-18 10:05 33.935580 -118.388168 83 132ft 19kts
10-Jan-18 10:06 33.936454 -118.382884 355 132ft 0kts
10-Jan-18 10:07 33.936500 -118.382889 355 132ft 7kts
10-Jan-18 10:08 33.935871 -118.398185 264 419ft 106kts
10-Jan-18 10:09 33.932607 -118.434393 259 2078ft 104kts
10-Jan-18 10:10 33.913280 -118.460291 188 3577ft 118kts
10-Jan-18 10:11 33.877263 -118.450467 146 4072ft 135kts
10-Jan-18 10:12 33.850894 -118.424366 140 4060ft 128kts
10-Jan-18 10:13 33.818382 -118.392815 140 4026ft 156kts
10-Jan-18 10:14 33.783649 -118.359110 140 4024ft 164kts
10-Jan-18 10:15 33.755738 -118.332045 140 4013ft 162kts
10-Jan-18 10:16 33.720767 -118.298115 140 4006ft 161kts
10-Jan-18 10:17 33.706717 -118.254794 72 4017ft 154kts
10-Jan-18 10:18 33.721812 -118.206279 60 4005ft 153kts
10-Jan-18 10:19 33.738898 -118.164209 63 4005ft 153kts
10-Jan-18 10:20 33.756936 -118.119688 62 4002ft 153kts
10-Jan-18 10:21 33.770344 -118.086721 62 4001ft 153kts
10-Jan-18 10:22 33.789347 -118.040180 61 4000ft 158kts
10-Jan-18 10:23 33.807416 -117.994118 57 4002ft 157kts
10-Jan-18 10:24 33.826676 -117.946714 61 3997ft 158kts
10-Jan-18 10:25 33.846164 -117.899794 62 3997ft 155kts
10-Jan-18 10:26 33.864703 -117.854089 62 3998ft 153kts
10-Jan-18 10:27 33.882934 -117.809137 62 4010ft 153kts
10-Jan-18 10:28 33.900954 -117.764553 62 4004ft 130kts
10-Jan-18 10:29 33.916870 -117.725146 62 4025ft 138kts
10-Jan-18 10:30 33.943842 -117.694422 27 4025ft 139kts
10-Jan-18 10:31 33.977841 -117.683485 312 3991ft 134kts
10-Jan-18 10:32 33.963541 -117.705547 165 3575ft 140kts
10-Jan-18 10:33 33.934893 -117.703784 205 3524ft 124kts
10-Jan-18 10:34 33.910020 -117.720531 208 3455ft 126kts
10-Jan-18 10:35 33.874610 -117.742905 206 3419ft 121kts
10-Jan-18 10:36 33.849859 -117.758144 207 3411ft 120kts
10-Jan-18 10:37 33.818870 -117.777978 207 3054ft 138kts
10-Jan-18 10:38 33.786165 -117.798889 206 2259ft 124kts
10-Jan-18 10:39 33.755387 -117.818207 207 1910ft 96kts
10-Jan-18 10:40 33.734932 -117.831329 208 1431ft 101kts
10-Jan-18 10:41 33.710938 -117.846540 208 760ft 96kts
10-Jan-18 10:42 33.688797 -117.860589 207 285ft 83kts
10-Jan-18 10:43 33.677421 -117.866881 118 61ft 7kts
10-Jan-18 10:44 33.676852 -117.865583 116 61ft 3kts
10-Jan-18 10:45 33.676286 -117.865720 207 61ft 16kts
10-Jan-18 10:46 33.673548 -117.866924 152 61ft 12kts
10-Jan-18 10:47 33.671713 -117.867307 123 61ft 5kts
10-Jan-18 10:48 33.671445 -117.867263 203 61ft 0kts
10-Jan-18 10:49 33.671445 -117.867263 203 61ft 0kts
10-Jan-18 10:50 33.671445 -117.867263 203 61ft 0kts
10-Jan-18 10:51 33.671445 -117.867263 203 61ft 0kts

Navigation Log

Ident Type
Flight plan parsing failed, navigation log unavailable